createdAt,value
2023-05-09T00:00:51.983Z,15.46
2023-05-09T00:03:19.071Z,15.46
2023-05-09T00:05:46.207Z,15.46
2023-05-09T00:08:13.719Z,15.45
2023-05-09T00:10:40.772Z,15.46
2023-05-09T00:13:07.980Z,15.45
2023-05-09T00:15:35.673Z,15.44
2023-05-09T00:18:02.715Z,15.44
2023-05-09T00:20:29.674Z,15.43
2023-05-09T00:22:56.817Z,15.41
2023-05-09T00:25:23.884Z,15.40
2023-05-09T00:27:50.955Z,15.39
2023-05-09T00:30:18.124Z,15.37
2023-05-09T00:32:45.224Z,15.36
2023-05-09T00:35:12.481Z,15.34
2023-05-09T00:37:40.037Z,15.33
2023-05-09T00:40:09.128Z,15.30
2023-05-09T00:42:36.657Z,15.27
2023-05-09T00:45:04.006Z,15.27
2023-05-09T00:47:31.259Z,15.24
2023-05-09T00:49:59.354Z,15.23
2023-05-09T00:52:27.164Z,15.21
2023-05-09T00:54:55.960Z,15.20
2023-05-09T00:57:23.353Z,15.19
2023-05-09T00:59:50.762Z,15.19
2023-05-09T01:02:18.707Z,15.17
2023-05-09T01:04:47.021Z,15.17
2023-05-09T01:07:41.053Z,15.17
2023-05-09T01:10:31.348Z,15.17
2023-05-09T01:13:09.832Z,15.16
2023-05-09T01:15:46.942Z,15.17
2023-05-09T01:18:30.187Z,15.17
2023-05-09T01:21:08.658Z,15.18
2023-05-09T01:23:44.368Z,15.18
2023-05-09T01:26:21.677Z,15.17
2023-05-09T01:29:32.453Z,15.17
2023-05-09T01:32:10.610Z,15.17
2023-05-09T01:34:40.703Z,15.17
2023-05-09T01:37:08.239Z,15.16
2023-05-09T01:39:41.469Z,15.16
2023-05-09T01:42:11.120Z,15.16
2023-05-09T01:44:41.113Z,15.15
2023-05-09T01:47:09.429Z,15.15
2023-05-09T01:49:38.833Z,15.14
2023-05-09T01:52:13.539Z,15.12
2023-05-09T01:54:41.533Z,15.11
2023-05-09T01:57:10.715Z,15.10
2023-05-09T01:59:44.450Z,15.08
2023-05-09T02:02:12.120Z,15.07
2023-05-09T02:04:42.291Z,15.05
2023-05-09T02:07:10.792Z,15.04
2023-05-09T02:09:37.839Z,15.03
2023-05-09T02:12:05.120Z,15.04
2023-05-09T02:14:32.488Z,15.02
2023-05-09T02:17:06.852Z,15.03
2023-05-09T02:19:35.698Z,15.04
2023-05-09T02:22:05.163Z,15.06
2023-05-09T02:24:34.272Z,15.04
2023-05-09T02:27:03.390Z,15.05
2023-05-09T02:29:40.691Z,15.06
2023-05-09T02:32:16.828Z,15.07
2023-05-09T02:34:45.469Z,15.07
2023-05-09T02:37:13.872Z,15.07
2023-05-09T02:39:40.885Z,15.07
2023-05-09T02:42:11.546Z,15.08
2023-05-09T02:44:41.582Z,15.08
2023-05-09T02:47:08.676Z,15.09
2023-05-09T02:49:36.118Z,15.10
2023-05-09T02:52:05.250Z,15.09
2023-05-09T02:54:32.646Z,15.10
2023-05-09T02:56:59.594Z,15.10
2023-05-09T02:59:26.658Z,15.09
2023-05-09T03:01:54.005Z,15.09
2023-05-09T03:04:21.750Z,15.09
2023-05-09T03:06:48.706Z,15.08
2023-05-09T03:09:15.722Z,15.07
2023-05-09T03:11:42.746Z,15.07
2023-05-09T03:14:10.729Z,15.05
2023-05-09T03:16:38.277Z,15.05
2023-05-09T03:19:09.941Z,15.06
2023-05-09T03:21:36.929Z,15.06
2023-05-09T03:24:04.861Z,15.05
2023-05-09T03:26:31.886Z,15.04
2023-05-09T03:28:59.449Z,15.05
2023-05-09T03:31:26.788Z,15.03
2023-05-09T03:33:53.794Z,15.03
2023-05-09T03:36:21.460Z,15.03
2023-05-09T03:38:48.569Z,15.02
2023-05-09T03:41:18.035Z,15.02
2023-05-09T03:43:47.370Z,15.01
2023-05-09T03:46:14.507Z,15.01
2023-05-09T03:48:44.353Z,15.00
2023-05-09T03:51:11.772Z,15.00
2023-05-09T03:53:41.429Z,14.99
2023-05-09T03:56:09.575Z,14.98
2023-05-09T03:58:44.179Z,14.98
2023-05-09T04:01:12.123Z,14.98
2023-05-09T04:03:40.454Z,14.98
2023-05-09T04:06:08.299Z,14.98
2023-05-09T04:08:38.918Z,14.97
2023-05-09T04:11:06.073Z,14.97
2023-05-09T04:13:34.155Z,14.97
2023-05-09T04:16:06.224Z,14.96
2023-05-09T04:18:34.359Z,14.96
2023-05-09T04:21:01.416Z,14.95
2023-05-09T04:23:28.538Z,14.96
2023-05-09T04:25:58.515Z,14.95
2023-05-09T04:28:25.540Z,14.95
2023-05-09T04:30:52.802Z,14.95
2023-05-09T04:33:21.341Z,14.96
2023-05-09T04:35:48.786Z,14.94
2023-05-09T04:38:16.585Z,14.94
2023-05-09T04:40:43.786Z,14.93
2023-05-09T04:43:11.436Z,14.94
2023-05-09T04:45:38.499Z,14.94
2023-05-09T04:48:05.786Z,14.94
2023-05-09T04:50:32.883Z,14.94
2023-05-09T04:52:59.848Z,14.96
2023-05-09T04:55:27.447Z,14.96
2023-05-09T04:57:55.904Z,14.96
2023-05-09T05:00:22.891Z,14.98
2023-05-09T05:02:49.974Z,14.97
2023-05-09T05:05:17.782Z,14.97
2023-05-09T05:07:44.962Z,14.97
2023-05-09T05:10:16.911Z,14.97
2023-05-09T05:12:48.225Z,14.98
2023-05-09T05:15:16.062Z,14.98
2023-05-09T05:17:45.574Z,14.97
2023-05-09T05:20:12.965Z,14.98
2023-05-09T05:22:44.708Z,14.98
2023-05-09T05:25:13.313Z,15.00
2023-05-09T05:27:41.261Z,15.01
2023-05-09T05:30:11.353Z,15.02
2023-05-09T05:32:38.377Z,15.04
2023-05-09T05:35:06.240Z,15.05
2023-05-09T05:37:36.530Z,15.07
2023-05-09T05:40:03.829Z,15.09
2023-05-09T05:42:31.708Z,15.11
2023-05-09T05:45:04.258Z,15.14
2023-05-09T05:47:37.376Z,15.15
2023-05-09T05:50:11.825Z,15.18
2023-05-09T05:52:39.993Z,15.22
2023-05-09T05:55:08.533Z,15.25
2023-05-09T05:57:37.614Z,15.30
2023-05-09T06:00:12.177Z,15.35
2023-05-09T06:02:47.865Z,15.38
2023-05-09T06:05:22.175Z,15.39
2023-05-09T06:07:50.402Z,15.43
2023-05-09T06:10:17.690Z,15.47
2023-05-09T06:12:45.910Z,15.49
2023-05-09T06:15:13.532Z,15.52
2023-05-09T06:17:44.890Z,15.54
2023-05-09T06:20:11.895Z,15.57
2023-05-09T06:22:38.933Z,15.57
2023-05-09T06:25:08.674Z,15.59
2023-05-09T06:27:38.673Z,15.64
2023-05-09T06:30:23.838Z,15.68
2023-05-09T06:32:52.320Z,15.72
2023-05-09T06:35:19.516Z,15.76
2023-05-09T06:37:48.437Z,15.77
2023-05-09T06:40:16.427Z,15.80
2023-05-09T06:42:43.537Z,15.80
2023-05-09T06:45:11.443Z,15.82
2023-05-09T06:47:38.537Z,15.86
2023-05-09T06:50:06.380Z,15.88
2023-05-09T06:52:33.339Z,15.93
2023-05-09T06:55:00.422Z,15.97
2023-05-09T06:57:27.402Z,16.05
2023-05-09T06:59:54.337Z,16.13
2023-05-09T07:02:21.299Z,16.20
2023-05-09T07:04:49.290Z,16.28
2023-05-09T07:07:19.167Z,16.38
2023-05-09T07:09:46.158Z,16.46
2023-05-09T07:12:19.435Z,16.53
2023-05-09T07:14:46.394Z,16.59
2023-05-09T07:17:22.796Z,16.65
2023-05-09T07:19:51.667Z,16.71
2023-05-09T07:22:18.840Z,16.74
2023-05-09T07:24:46.403Z,16.77
2023-05-09T07:27:13.462Z,16.79
2023-05-09T07:29:40.543Z,16.80
2023-05-09T07:32:07.930Z,16.80
2023-05-09T07:34:36.420Z,16.82
2023-05-09T07:37:03.618Z,16.85
2023-05-09T07:39:30.628Z,16.88
2023-05-09T07:41:57.550Z,16.94
2023-05-09T07:44:24.619Z,17.04
2023-05-09T07:46:51.693Z,17.13
2023-05-09T07:49:18.740Z,17.23
2023-05-09T07:51:45.810Z,17.30
2023-05-09T07:54:13.052Z,17.39
2023-05-09T07:56:40.033Z,17.49
2023-05-09T07:59:06.969Z,17.60
2023-05-09T08:01:33.962Z,17.73
2023-05-09T08:04:01.127Z,17.85
2023-05-09T08:06:28.256Z,17.96
2023-05-09T08:08:55.273Z,18.06
2023-05-09T08:11:22.671Z,18.09
2023-05-09T08:13:50.271Z,18.18
2023-05-09T08:16:17.547Z,18.29
2023-05-09T08:18:44.877Z,18.37
2023-05-09T08:21:12.087Z,18.42
2023-05-09T08:23:40.524Z,18.45
2023-05-09T08:26:07.497Z,18.48
2023-05-09T08:28:34.536Z,18.50
2023-05-09T08:31:01.556Z,18.55
2023-05-09T08:33:28.653Z,18.56
2023-05-09T08:35:56.291Z,18.64
2023-05-09T08:38:24.291Z,18.72
2023-05-09T08:40:51.406Z,18.81
2023-05-09T08:43:23.158Z,18.86
2023-05-09T08:46:03.346Z,18.94
2023-05-09T08:48:31.173Z,18.95
2023-05-09T08:50:58.845Z,19.02
2023-05-09T08:53:26.677Z,19.09
2023-05-09T08:55:54.228Z,19.19
2023-05-09T08:58:22.769Z,19.29
2023-05-09T09:00:50.702Z,19.42
2023-05-09T09:03:18.416Z,19.51
2023-05-09T09:05:46.830Z,19.63
2023-05-09T09:08:15.011Z,19.74
2023-05-09T09:10:46.899Z,19.81
2023-05-09T09:13:15.562Z,19.94
2023-05-09T09:15:46.841Z,20.05
2023-05-09T09:18:23.180Z,20.18
2023-05-09T09:21:09.347Z,20.31
2023-05-09T09:23:39.409Z,20.37
2023-05-09T09:26:06.447Z,20.46
2023-05-09T09:28:34.609Z,20.55
2023-05-09T09:31:02.008Z,20.64
2023-05-09T09:33:29.709Z,20.76
2023-05-09T09:35:57.427Z,20.73
2023-05-09T09:38:25.005Z,20.74
2023-05-09T09:40:51.865Z,20.81
2023-05-09T09:43:19.096Z,20.88
2023-05-09T09:45:53.713Z,20.97
2023-05-09T09:48:30.675Z,21.05
2023-05-09T09:50:57.595Z,21.12
2023-05-09T09:53:30.130Z,21.17
2023-05-09T09:55:57.252Z,21.20
2023-05-09T09:58:25.454Z,21.29
2023-05-09T10:01:13.999Z,21.32
2023-05-09T10:03:44.926Z,21.43
2023-05-09T10:06:16.382Z,21.56
2023-05-09T10:08:47.135Z,21.66
2023-05-09T10:11:15.300Z,21.76
2023-05-09T10:13:43.677Z,21.84
2023-05-09T10:16:12.700Z,21.97
2023-05-09T10:18:42.245Z,22.07
2023-05-09T10:21:14.373Z,22.18
2023-05-09T10:23:47.074Z,22.21
2023-05-09T10:26:23.498Z,22.34
2023-05-09T10:29:00.284Z,22.46
2023-05-09T10:31:30.899Z,22.54
2023-05-09T10:34:05.313Z,22.67
2023-05-09T10:36:33.076Z,22.76
2023-05-09T10:39:01.123Z,22.86
2023-05-09T10:41:28.348Z,22.97
2023-05-09T10:43:59.720Z,23.07
2023-05-09T10:46:27.656Z,23.11
2023-05-09T10:48:55.349Z,23.19
2023-05-09T10:51:24.479Z,23.20
2023-05-09T10:53:52.086Z,23.15
2023-05-09T10:56:31.701Z,23.19
2023-05-09T10:59:00.039Z,23.25
2023-05-09T11:01:37.830Z,23.36
2023-05-09T11:04:17.021Z,23.52
2023-05-09T11:06:55.054Z,23.68
2023-05-09T11:09:38.085Z,23.74
2023-05-09T11:12:05.507Z,23.80
2023-05-09T11:14:44.877Z,23.81
2023-05-09T11:17:21.732Z,23.81
2023-05-09T11:19:49.020Z,23.75
2023-05-09T11:22:41.313Z,23.70
2023-05-09T11:25:14.569Z,23.72
2023-05-09T11:27:49.907Z,23.77
2023-05-09T11:30:19.632Z,23.85
2023-05-09T11:32:58.785Z,23.92
2023-05-09T11:35:26.859Z,23.86
2023-05-09T11:38:06.406Z,23.81
2023-05-09T11:40:34.948Z,23.72
2023-05-09T11:43:02.554Z,23.64
2023-05-09T11:45:32.384Z,23.55
2023-05-09T11:48:01.083Z,23.50
2023-05-09T11:50:29.280Z,23.50
2023-05-09T11:52:56.272Z,23.53
2023-05-09T11:55:25.071Z,23.51
2023-05-09T11:57:54.119Z,23.56
2023-05-09T12:00:24.229Z,23.68
2023-05-09T12:02:53.093Z,23.75
2023-05-09T12:05:23.152Z,23.72
2023-05-09T12:07:50.980Z,23.69
2023-05-09T12:10:23.193Z,23.70
2023-05-09T12:12:52.832Z,23.68
2023-05-09T12:15:21.561Z,23.69
2023-05-09T12:18:05.932Z,23.59
2023-05-09T12:20:52.809Z,23.51
2023-05-09T12:23:20.460Z,23.44
2023-05-09T12:25:55.905Z,23.39
2023-05-09T12:28:26.678Z,23.32
2023-05-09T12:30:54.621Z,23.29
2023-05-09T12:33:22.323Z,23.22
2023-05-09T12:36:10.122Z,23.06
2023-05-09T12:38:37.995Z,22.98
2023-05-09T12:41:10.741Z,22.91
2023-05-09T12:43:49.339Z,22.86
2023-05-09T12:46:20.674Z,22.84
2023-05-09T12:48:49.368Z,22.82
2023-05-09T12:51:21.732Z,22.80
2023-05-09T12:53:49.058Z,22.69
2023-05-09T12:56:23.276Z,22.60
2023-05-09T12:58:55.293Z,22.46
2023-05-09T13:01:28.793Z,22.35
2023-05-09T13:04:05.672Z,22.42
2023-05-09T13:06:33.014Z,22.69
2023-05-09T13:09:05.928Z,22.99
2023-05-09T13:11:33.005Z,23.29
2023-05-09T13:14:00.343Z,23.53
2023-05-09T13:16:27.626Z,23.72
2023-05-09T13:18:54.592Z,23.90
2023-05-09T13:21:21.679Z,24.07
2023-05-09T13:23:50.003Z,24.19
2023-05-09T13:26:17.006Z,24.28
2023-05-09T13:28:44.003Z,24.31
2023-05-09T13:31:11.039Z,24.36
2023-05-09T13:33:38.130Z,24.37
2023-05-09T13:36:06.174Z,24.36
2023-05-09T13:38:36.773Z,24.28
2023-05-09T13:41:03.836Z,24.22
2023-05-09T13:43:30.805Z,24.15
2023-05-09T13:45:57.789Z,24.09
2023-05-09T13:48:24.790Z,24.07
2023-05-09T13:50:51.814Z,24.08
2023-05-09T13:53:18.919Z,24.12
2023-05-09T13:55:46.299Z,24.17
2023-05-09T13:58:13.336Z,24.23
2023-05-09T14:00:40.636Z,24.26
2023-05-09T14:03:07.684Z,24.29
2023-05-09T14:05:34.740Z,24.32
2023-05-09T14:08:01.817Z,24.33
2023-05-09T14:10:28.958Z,24.30
2023-05-09T14:12:56.372Z,24.22
2023-05-09T14:15:24.360Z,24.20
2023-05-09T14:17:51.384Z,24.09
2023-05-09T14:20:18.545Z,24.00
2023-05-09T14:22:46.430Z,23.89
2023-05-09T14:25:13.442Z,23.76
2023-05-09T14:27:40.379Z,23.65
2023-05-09T14:30:10.232Z,23.48
2023-05-09T14:32:37.193Z,23.34
2023-05-09T14:35:04.590Z,23.20
2023-05-09T14:37:31.914Z,23.07
2023-05-09T14:40:05.213Z,22.96
2023-05-09T14:42:32.839Z,22.85
2023-05-09T14:44:59.914Z,22.78
2023-05-09T14:47:27.011Z,22.69
2023-05-09T14:49:54.092Z,22.62
2023-05-09T14:52:21.056Z,22.54
2023-05-09T14:54:48.039Z,22.47
2023-05-09T14:57:15.038Z,22.40
2023-05-09T14:59:42.179Z,22.32
2023-05-09T15:02:09.134Z,22.23
2023-05-09T15:04:36.126Z,22.18
2023-05-09T15:07:03.048Z,22.12
2023-05-09T15:09:29.960Z,22.04
2023-05-09T15:11:56.891Z,21.97
2023-05-09T15:14:23.876Z,21.91
2023-05-09T15:16:52.201Z,21.82
2023-05-09T15:19:19.474Z,21.75
2023-05-09T15:21:46.439Z,21.69
2023-05-09T15:24:13.494Z,21.61
2023-05-09T15:26:40.455Z,21.53
2023-05-09T15:29:07.440Z,21.45
2023-05-09T15:31:36.787Z,21.39
2023-05-09T15:34:03.861Z,21.34
2023-05-09T15:36:32.052Z,21.32
2023-05-09T15:38:59.470Z,21.31
2023-05-09T15:41:27.138Z,21.26
2023-05-09T15:43:54.045Z,21.26
2023-05-09T15:46:21.808Z,21.22
2023-05-09T15:48:48.795Z,21.22
2023-05-09T15:51:16.336Z,21.20
2023-05-09T15:53:43.402Z,21.19
2023-05-09T15:56:10.503Z,21.19
2023-05-09T15:58:37.640Z,21.17
2023-05-09T16:01:07.755Z,21.15
2023-05-09T16:03:35.050Z,21.15
2023-05-09T16:06:02.237Z,21.10
2023-05-09T16:08:29.200Z,21.08
2023-05-09T16:10:56.337Z,21.08
2023-05-09T16:13:23.733Z,21.05
2023-05-09T16:15:51.134Z,21.03
2023-05-09T16:18:18.639Z,21.03
2023-05-09T16:20:45.637Z,21.00
2023-05-09T16:23:13.066Z,20.97
2023-05-09T16:25:40.134Z,20.94
2023-05-09T16:28:08.213Z,20.90
2023-05-09T16:30:35.304Z,20.87
2023-05-09T16:33:02.524Z,20.82
2023-05-09T16:35:29.622Z,20.78
2023-05-09T16:37:56.783Z,20.76
2023-05-09T16:40:23.813Z,20.71
2023-05-09T16:42:50.882Z,20.65
2023-05-09T16:45:17.946Z,20.61
2023-05-09T16:47:50.971Z,20.55
2023-05-09T16:50:18.163Z,20.51
2023-05-09T16:52:45.546Z,20.46
2023-05-09T16:55:12.772Z,20.38
2023-05-09T16:57:39.832Z,20.34
2023-05-09T17:00:08.005Z,20.34
2023-05-09T17:02:36.253Z,20.32
2023-05-09T17:05:04.667Z,20.32
2023-05-09T17:07:32.176Z,20.32
2023-05-09T17:09:59.477Z,20.31
2023-05-09T17:12:27.455Z,20.29
2023-05-09T17:14:54.414Z,20.27
2023-05-09T17:17:21.330Z,20.26
2023-05-09T17:19:48.401Z,20.23
2023-05-09T17:22:15.386Z,20.21
2023-05-09T17:24:42.366Z,20.19
2023-05-09T17:27:10.793Z,20.16
2023-05-09T17:29:37.901Z,20.14
2023-05-09T17:32:05.095Z,20.10
2023-05-09T17:34:32.298Z,20.10
2023-05-09T17:37:01.935Z,20.06
2023-05-09T17:39:28.938Z,20.03
2023-05-09T17:41:55.896Z,19.98
2023-05-09T17:44:22.846Z,19.93
2023-05-09T17:46:50.843Z,19.89
2023-05-09T17:49:20.326Z,19.84
2023-05-09T17:51:47.266Z,19.78
2023-05-09T17:54:14.412Z,19.72
2023-05-09T17:56:41.544Z,19.67
2023-05-09T17:59:08.519Z,19.60
2023-05-09T18:01:35.613Z,19.51
2023-05-09T18:04:02.854Z,19.37
2023-05-09T18:06:29.834Z,19.22
2023-05-09T18:08:56.814Z,19.07
2023-05-09T18:11:24.503Z,18.89
2023-05-09T18:13:51.459Z,18.71
2023-05-09T18:16:18.418Z,18.51
2023-05-09T18:18:45.465Z,18.35
2023-05-09T18:21:12.484Z,18.18
2023-05-09T18:23:39.947Z,18.02
2023-05-09T18:26:07.714Z,17.87
2023-05-09T18:28:39.409Z,17.76
2023-05-09T18:31:09.410Z,17.64
2023-05-09T18:33:39.291Z,17.53
2023-05-09T18:36:10.940Z,17.38
2023-05-09T18:38:39.299Z,17.29
2023-05-09T18:41:08.426Z,17.20
2023-05-09T18:43:36.952Z,17.11
2023-05-09T18:46:05.039Z,17.00
2023-05-09T18:48:33.384Z,16.91
2023-05-09T18:51:00.370Z,16.85
2023-05-09T18:53:28.738Z,16.76
2023-05-09T18:55:56.728Z,16.70
2023-05-09T18:58:24.630Z,16.62
2023-05-09T19:00:52.829Z,16.56
2023-05-09T19:03:20.737Z,16.50
2023-05-09T19:05:47.665Z,16.45
2023-05-09T19:08:14.759Z,16.41
2023-05-09T19:10:42.520Z,16.35
2023-05-09T19:13:09.701Z,16.32
2023-05-09T19:15:37.326Z,16.29
2023-05-09T19:18:05.222Z,16.27
2023-05-09T19:20:32.666Z,16.23
2023-05-09T19:22:59.875Z,16.20
2023-05-09T19:25:33.547Z,16.17
2023-05-09T19:28:00.646Z,16.16
2023-05-09T19:30:27.715Z,16.12
2023-05-09T19:32:54.887Z,16.10
2023-05-09T19:35:22.065Z,16.07
2023-05-09T19:37:49.267Z,16.06
2023-05-09T19:40:17.766Z,16.03
2023-05-09T19:42:45.192Z,16.00
2023-05-09T19:45:12.458Z,15.97
2023-05-09T19:47:39.574Z,15.93
2023-05-09T19:50:07.703Z,15.90
2023-05-09T19:52:37.008Z,15.87
2023-05-09T19:55:05.998Z,15.85
2023-05-09T19:57:33.554Z,15.83
2023-05-09T20:00:00.472Z,15.80
2023-05-09T20:02:27.521Z,15.78
2023-05-09T20:04:54.735Z,15.77
2023-05-09T20:07:21.747Z,15.75
2023-05-09T20:09:48.755Z,15.73
2023-05-09T20:12:16.651Z,15.71
2023-05-09T20:14:44.299Z,15.71
2023-05-09T20:17:11.272Z,15.68
2023-05-09T20:19:38.311Z,15.67
2023-05-09T20:22:06.509Z,15.64
2023-05-09T20:24:33.814Z,15.64
2023-05-09T20:27:02.575Z,15.63
2023-05-09T20:29:29.834Z,15.62
2023-05-09T20:32:00.033Z,15.61
2023-05-09T20:34:27.227Z,15.60
2023-05-09T20:36:55.035Z,15.58
2023-05-09T20:39:23.017Z,15.56
2023-05-09T20:41:50.678Z,15.56
2023-05-09T20:44:19.021Z,15.54
2023-05-09T20:46:46.144Z,15.52
2023-05-09T20:49:13.197Z,15.50
2023-05-09T20:51:40.785Z,15.49
2023-05-09T20:54:07.968Z,15.47
2023-05-09T20:56:35.644Z,15.46
2023-05-09T20:59:04.224Z,15.43
2023-05-09T21:01:35.346Z,15.41
2023-05-09T21:04:08.217Z,15.37
2023-05-09T21:06:36.660Z,15.35
2023-05-09T21:09:05.646Z,15.33
2023-05-09T21:11:32.687Z,15.30
2023-05-09T21:13:59.660Z,15.28
2023-05-09T21:16:27.943Z,15.27
2023-05-09T21:18:54.950Z,15.24
2023-05-09T21:21:22.295Z,15.24
2023-05-09T21:23:49.470Z,15.21
2023-05-09T21:26:16.803Z,15.20
2023-05-09T21:28:43.772Z,15.17
2023-05-09T21:31:11.582Z,15.15
2023-05-09T21:33:38.702Z,15.13
2023-05-09T21:36:06.247Z,15.11
2023-05-09T21:38:33.183Z,15.10
2023-05-09T21:41:00.145Z,15.08
2023-05-09T21:43:28.495Z,15.06
2023-05-09T21:45:56.152Z,15.03
2023-05-09T21:48:23.110Z,15.02
2023-05-09T21:50:50.210Z,15.01
2023-05-09T21:53:17.136Z,14.99
2023-05-09T21:55:44.059Z,14.99
2023-05-09T21:58:11.018Z,14.96
2023-05-09T22:00:37.939Z,14.96
2023-05-09T22:03:07.252Z,14.95
2023-05-09T22:05:34.254Z,14.95
2023-05-09T22:08:01.155Z,14.94
2023-05-09T22:10:28.085Z,14.93
2023-05-09T22:12:55.059Z,14.92
2023-05-09T22:15:22.172Z,14.94
2023-05-09T22:17:49.120Z,14.92
2023-05-09T22:20:16.581Z,14.90
2023-05-09T22:22:43.765Z,14.86
2023-05-09T22:25:10.765Z,14.85
2023-05-09T22:27:37.761Z,14.80
2023-05-09T22:30:05.958Z,14.78
2023-05-09T22:32:33.039Z,14.73
2023-05-09T22:35:00.110Z,14.70
2023-05-09T22:37:27.111Z,14.67
2023-05-09T22:39:54.063Z,14.64
2023-05-09T22:42:21.084Z,14.60
2023-05-09T22:44:49.950Z,14.57
2023-05-09T22:47:16.887Z,14.56
2023-05-09T22:49:45.659Z,14.53
2023-05-09T22:52:13.080Z,14.52
2023-05-09T22:54:40.523Z,14.48
2023-05-09T22:57:07.509Z,14.45
2023-05-09T22:59:34.550Z,14.45
2023-05-09T23:02:01.529Z,14.43
2023-05-09T23:04:28.492Z,14.41
2023-05-09T23:06:55.520Z,14.41
2023-05-09T23:09:22.481Z,14.36
2023-05-09T23:11:49.462Z,14.36
2023-05-09T23:14:16.534Z,14.34
2023-05-09T23:16:44.039Z,14.32
2023-05-09T23:19:10.988Z,14.29
2023-05-09T23:21:38.086Z,14.27
2023-05-09T23:24:05.251Z,14.25
2023-05-09T23:26:32.633Z,14.24
2023-05-09T23:28:59.604Z,14.21
2023-05-09T23:31:26.633Z,14.18
2023-05-09T23:33:53.613Z,14.15
2023-05-09T23:36:20.534Z,14.14
2023-05-09T23:38:50.496Z,14.12
2023-05-09T23:41:17.474Z,14.09
2023-05-09T23:43:44.618Z,14.07
2023-05-09T23:46:11.591Z,14.06
2023-05-09T23:48:38.979Z,14.04
2023-05-09T23:51:05.942Z,14.02
2023-05-09T23:53:35.017Z,14.00
2023-05-09T23:56:02.832Z,13.97
2023-05-09T23:58:29.791Z,13.97
